createdAt,value
2023-04-18T00:00:10.516Z,68.92
2023-04-18T00:01:10.643Z,66.14
2023-04-18T00:02:10.930Z,67.85
2023-04-18T00:03:11.207Z,67.52
2023-04-18T00:04:11.390Z,66.42
2023-04-18T00:05:11.154Z,71.20
2023-04-18T00:06:11.154Z,69.64
2023-04-18T00:07:11.145Z,66.97
2023-04-18T00:08:11.200Z,71.88
2023-04-18T00:09:11.295Z,67.26
2023-04-18T00:10:11.350Z,66.37
2023-04-18T00:11:11.386Z,64.62
2023-04-18T00:12:11.391Z,64.04
2023-04-18T00:13:11.447Z,66.67
2023-04-18T00:14:11.657Z,66.84
2023-04-18T00:15:11.523Z,71.19
2023-04-18T00:16:11.562Z,66.99
2023-04-18T00:17:11.615Z,66.64
2023-04-18T00:18:11.582Z,68.26
2023-04-18T00:19:11.659Z,69.17
2023-04-18T00:20:11.661Z,64.44
2023-04-18T00:21:11.680Z,65.96
2023-04-18T00:22:11.673Z,67.54
2023-04-18T00:23:13.486Z,66.21
2023-04-18T00:24:11.814Z,67.72
2023-04-18T00:25:11.781Z,69.67
2023-04-18T00:26:11.730Z,66.01
2023-04-18T00:27:11.746Z,67.28
2023-04-18T00:28:11.752Z,66.28
2023-04-18T00:29:11.768Z,69.73
2023-04-18T00:30:11.782Z,70.10
2023-04-18T00:31:11.813Z,71.90
2023-04-18T00:32:11.853Z,68.63
2023-04-18T00:33:11.847Z,70.01
2023-04-18T00:34:12.065Z,66.84
2023-04-18T00:35:11.864Z,69.98
2023-04-18T00:36:11.917Z,69.97
2023-04-18T00:37:11.916Z,68.62
2023-04-18T00:38:11.918Z,70.44
2023-04-18T00:39:11.928Z,70.77
2023-04-18T00:40:11.971Z,69.11
2023-04-18T00:41:12.050Z,64.70
2023-04-18T00:42:12.067Z,67.10
2023-04-18T00:43:12.056Z,72.98
2023-04-18T00:44:12.219Z,67.36
2023-04-18T00:45:12.138Z,74.02
2023-04-18T00:46:12.222Z,67.69
2023-04-18T00:47:12.249Z,67.84
2023-04-18T00:48:12.228Z,68.81
2023-04-18T00:49:12.253Z,68.08
2023-04-18T00:50:12.318Z,73.38
2023-04-18T00:51:12.315Z,68.82
2023-04-18T00:52:12.383Z,67.86
2023-04-18T00:53:12.438Z,70.25
2023-04-18T00:54:12.544Z,69.46
2023-04-18T00:55:12.499Z,68.48
2023-04-18T00:56:12.512Z,69.71
2023-04-18T00:57:12.521Z,70.96
2023-04-18T00:58:12.524Z,68.71
2023-04-18T00:59:12.573Z,70.25
2023-04-18T01:00:12.590Z,71.12
2023-04-18T01:01:12.669Z,70.21
2023-04-18T01:02:12.608Z,73.68
2023-04-18T01:03:12.659Z,68.67
2023-04-18T01:04:13.066Z,68.99
2023-04-18T01:05:12.620Z,66.99
2023-04-18T01:06:12.620Z,71.72
2023-04-18T01:07:12.647Z,72.55
2023-04-18T01:08:12.633Z,70.49
2023-04-18T01:09:12.663Z,71.35
2023-04-18T01:10:12.649Z,67.01
2023-04-18T01:11:12.666Z,69.19
2023-04-18T01:12:12.668Z,70.32
2023-04-18T01:13:12.676Z,69.97
2023-04-18T01:14:12.894Z,72.40
2023-04-18T01:15:12.698Z,70.76
2023-04-18T01:16:12.718Z,73.09
2023-04-18T01:17:12.697Z,71.85
2023-04-18T01:18:12.705Z,68.98
2023-04-18T01:19:12.718Z,69.53
2023-04-18T01:20:12.693Z,69.63
2023-04-18T01:21:12.684Z,71.25
2023-04-18T01:22:12.633Z,72.03
2023-04-18T01:23:12.711Z,74.91
2023-04-18T01:24:12.830Z,71.57
2023-04-18T01:25:12.645Z,69.81
2023-04-18T01:26:12.661Z,70.69
2023-04-18T01:27:12.656Z,74.97
2023-04-18T01:28:12.675Z,72.13
2023-04-18T01:29:12.779Z,72.49
2023-04-18T01:30:12.650Z,71.34
2023-04-18T01:31:12.689Z,74.73
2023-04-18T01:32:12.662Z,71.87
2023-04-18T01:33:12.674Z,70.51
2023-04-18T01:34:12.838Z,70.39
2023-04-18T01:35:12.685Z,74.89
2023-04-18T01:36:12.680Z,72.20
2023-04-18T01:37:12.629Z,72.38
2023-04-18T01:38:12.650Z,71.01
2023-04-18T01:39:12.651Z,74.78
2023-04-18T01:40:12.655Z,74.16
2023-04-18T01:41:12.653Z,71.28
2023-04-18T01:42:12.931Z,70.29
2023-04-18T01:43:12.684Z,74.02
2023-04-18T01:44:12.847Z,73.81
2023-04-18T01:45:12.653Z,75.07
2023-04-18T01:46:12.696Z,71.81
2023-04-18T01:47:12.653Z,75.11
2023-04-18T01:48:12.685Z,73.32
2023-04-18T01:49:12.678Z,74.04
2023-04-18T01:50:12.684Z,73.25
2023-04-18T01:51:12.681Z,69.32
2023-04-18T01:52:12.694Z,70.45
2023-04-18T01:53:12.704Z,71.00
2023-04-18T01:54:12.979Z,71.82
2023-04-18T01:55:12.745Z,72.87
2023-04-18T01:56:12.721Z,70.61
2023-04-18T01:57:12.676Z,73.21
2023-04-18T01:58:12.669Z,73.02
2023-04-18T01:59:12.691Z,74.33
2023-04-18T02:00:12.699Z,72.98
2023-04-18T02:01:12.733Z,70.04
2023-04-18T02:02:12.790Z,70.31
2023-04-18T02:03:13.069Z,69.07
2023-04-18T02:04:12.939Z,72.35
2023-04-18T02:05:12.679Z,72.21
2023-04-18T02:06:12.666Z,70.96
2023-04-18T02:07:12.683Z,70.67
2023-04-18T02:08:12.696Z,76.36
2023-04-18T02:09:12.712Z,73.25
2023-04-18T02:10:12.705Z,72.69
2023-04-18T02:11:12.716Z,73.62
2023-04-18T02:12:12.751Z,77.43
2023-04-18T02:13:12.746Z,74.61
2023-04-18T02:14:12.972Z,74.28
2023-04-18T02:15:12.682Z,74.83
2023-04-18T02:16:12.719Z,69.42
2023-04-18T02:17:12.701Z,75.33
2023-04-18T02:18:12.765Z,73.30
2023-04-18T02:19:12.712Z,73.60
2023-04-18T02:20:12.729Z,74.79
2023-04-18T02:21:12.728Z,78.02
2023-04-18T02:22:12.747Z,73.02
2023-04-18T02:23:12.723Z,72.67
2023-04-18T02:24:12.919Z,73.69
2023-04-18T02:25:12.715Z,75.66
2023-04-18T02:26:12.723Z,76.25
2023-04-18T02:27:12.732Z,72.12
2023-04-18T02:28:12.740Z,75.56
2023-04-18T02:29:12.741Z,75.79
2023-04-18T02:30:12.751Z,75.28
2023-04-18T02:31:12.754Z,74.64
2023-04-18T02:32:12.862Z,75.21
2023-04-18T02:33:12.705Z,73.03
2023-04-18T02:34:13.001Z,76.24
2023-04-18T02:35:12.825Z,75.29
2023-04-18T02:36:12.777Z,73.53
2023-04-18T02:37:12.792Z,72.72
2023-04-18T02:38:12.748Z,78.85
2023-04-18T02:39:12.817Z,72.32
2023-04-18T02:40:12.814Z,70.41
2023-04-18T02:41:12.758Z,73.02
2023-04-18T02:42:12.768Z,76.27
2023-04-18T02:43:12.772Z,74.28
2023-04-18T02:44:13.109Z,71.28
2023-04-18T02:45:12.787Z,71.57
2023-04-18T02:46:12.869Z,72.93
2023-04-18T02:47:12.801Z,73.23
2023-04-18T02:48:12.827Z,73.75
2023-04-18T02:49:12.819Z,75.94
2023-04-18T02:50:12.825Z,77.34
2023-04-18T02:51:12.822Z,75.32
2023-04-18T02:52:12.837Z,77.31
2023-04-18T02:53:12.848Z,71.47
2023-04-18T02:54:13.085Z,75.83
2023-04-18T02:55:12.868Z,74.26
2023-04-18T02:56:12.811Z,76.63
2023-04-18T02:57:12.871Z,76.48
2023-04-18T02:58:12.879Z,74.30
2023-04-18T02:59:12.832Z,70.13
2023-04-18T03:00:12.913Z,76.91
2023-04-18T03:01:12.921Z,74.55
2023-04-18T03:02:12.952Z,78.40
2023-04-18T03:03:13.010Z,75.93
2023-04-18T03:04:13.171Z,72.80
2023-04-18T03:05:12.969Z,73.27
2023-04-18T03:06:12.936Z,77.51
2023-04-18T03:07:12.907Z,72.52
2023-04-18T03:08:12.899Z,76.36
2023-04-18T03:09:12.902Z,72.96
2023-04-18T03:10:12.976Z,70.42
2023-04-18T03:11:12.960Z,74.71
2023-04-18T03:12:12.942Z,76.32
2023-04-18T03:13:12.984Z,78.43
2023-04-18T03:14:13.156Z,75.63
2023-04-18T03:15:12.975Z,75.50
2023-04-18T03:16:13.021Z,73.85
2023-04-18T03:17:12.963Z,73.48
2023-04-18T03:18:12.971Z,76.57
2023-04-18T03:19:12.997Z,73.50
2023-04-18T03:20:12.990Z,77.74
2023-04-18T03:21:12.990Z,77.94
2023-04-18T03:22:12.987Z,74.30
2023-04-18T03:23:13.044Z,74.87
2023-04-18T03:24:13.240Z,73.81
2023-04-18T03:25:13.018Z,72.87
2023-04-18T03:26:13.016Z,77.34
2023-04-18T03:27:12.979Z,79.20
2023-04-18T03:28:13.030Z,74.79
2023-04-18T03:29:13.041Z,76.95
2023-04-18T03:30:13.012Z,77.00
2023-04-18T03:31:13.069Z,75.84
2023-04-18T03:32:13.067Z,77.87
2023-04-18T03:33:13.073Z,77.65
2023-04-18T03:34:13.277Z,75.09
2023-04-18T03:35:13.098Z,75.62
2023-04-18T03:36:13.197Z,76.36
2023-04-18T03:37:13.128Z,75.76
2023-04-18T03:38:13.260Z,74.40
2023-04-18T03:39:13.107Z,76.52
2023-04-18T03:40:13.129Z,78.07
2023-04-18T03:41:13.124Z,75.05
2023-04-18T03:42:13.140Z,78.79
2023-04-18T03:43:13.142Z,73.80
2023-04-18T03:44:13.408Z,77.07
2023-04-18T03:45:13.221Z,74.76
2023-04-18T03:46:13.205Z,76.55
2023-04-18T03:47:13.201Z,81.20
2023-04-18T03:48:13.207Z,76.47
2023-04-18T03:49:13.178Z,77.14
2023-04-18T03:50:13.228Z,77.71
2023-04-18T03:51:13.200Z,78.54
2023-04-18T03:52:13.249Z,77.70
2023-04-18T03:53:13.252Z,77.12
2023-04-18T03:54:13.323Z,79.15
2023-04-18T03:55:13.262Z,76.20
2023-04-18T03:56:13.281Z,82.21
2023-04-18T03:57:13.285Z,79.67
2023-04-18T03:58:13.279Z,75.08
2023-04-18T03:59:13.302Z,76.08
2023-04-18T04:00:13.294Z,82.53
2023-04-18T04:01:13.306Z,78.55
2023-04-18T04:02:13.395Z,78.63
2023-04-18T04:03:13.468Z,75.43
2023-04-18T04:04:13.571Z,78.75
2023-04-18T04:05:13.336Z,78.76
2023-04-18T04:06:13.338Z,75.51
2023-04-18T04:07:13.340Z,75.76
2023-04-18T04:08:13.412Z,75.85
2023-04-18T04:09:13.365Z,78.39
2023-04-18T04:10:13.373Z,79.84
2023-04-18T04:11:13.374Z,76.05
2023-04-18T04:12:13.440Z,78.14
2023-04-18T04:13:13.390Z,71.54
2023-04-18T04:14:13.768Z,73.09
2023-04-18T04:15:13.429Z,66.57
2023-04-18T04:16:13.467Z,70.78
2023-04-18T04:17:13.410Z,69.06
2023-04-18T04:18:13.488Z,71.35
2023-04-18T04:19:13.515Z,68.94
2023-04-18T04:20:13.516Z,69.70
2023-04-18T04:21:13.559Z,69.64
2023-04-18T04:22:13.545Z,71.48
2023-04-18T04:23:13.493Z,68.21
2023-04-18T04:24:13.673Z,71.02
2023-04-18T04:25:13.565Z,69.15
2023-04-18T04:26:13.561Z,70.29
2023-04-18T04:27:13.542Z,68.07
2023-04-18T04:28:13.654Z,67.04
2023-04-18T04:29:13.584Z,66.82
2023-04-18T04:30:13.715Z,65.97
2023-04-18T04:31:13.620Z,64.60
2023-04-18T04:32:13.604Z,66.57
2023-04-18T04:33:13.625Z,65.29
2023-04-18T04:34:13.776Z,64.59
2023-04-18T04:35:14.456Z,68.15
2023-04-18T04:36:13.673Z,62.87
2023-04-18T04:37:13.677Z,66.36
2023-04-18T04:38:13.613Z,65.44
2023-04-18T04:39:13.624Z,71.40
2023-04-18T04:40:13.625Z,66.08
2023-04-18T04:41:13.633Z,62.18
2023-04-18T04:42:13.706Z,64.12
2023-04-18T04:43:13.709Z,65.80
2023-04-18T04:44:13.793Z,65.91
2023-04-18T04:45:13.746Z,64.19
2023-04-18T04:46:13.897Z,64.92
2023-04-18T04:47:13.672Z,62.63
2023-04-18T04:48:13.675Z,66.96
2023-04-18T04:49:13.693Z,65.42
2023-04-18T04:50:13.759Z,65.89
2023-04-18T04:51:13.744Z,65.48
2023-04-18T04:52:13.769Z,66.63
2023-04-18T04:53:13.756Z,67.09
2023-04-18T04:54:14.245Z,66.18
2023-04-18T04:55:13.770Z,63.45
2023-04-18T04:56:13.775Z,61.78
2023-04-18T04:57:13.783Z,69.05
2023-04-18T04:58:13.787Z,70.55
2023-04-18T04:59:13.797Z,63.23
2023-04-18T05:00:13.833Z,65.39
2023-04-18T05:01:13.884Z,65.70
2023-04-18T05:02:13.923Z,66.90
2023-04-18T05:03:14.091Z,62.41
2023-04-18T05:04:14.286Z,64.37
2023-04-18T05:05:13.859Z,61.48
2023-04-18T05:06:13.875Z,64.55
2023-04-18T05:07:13.908Z,59.53
2023-04-18T05:08:13.972Z,56.49
2023-04-18T05:09:13.928Z,58.32
2023-04-18T05:10:13.942Z,61.22
2023-04-18T05:11:13.956Z,64.15
2023-04-18T05:12:13.939Z,62.57
2023-04-18T05:13:14.024Z,60.47
2023-04-18T05:14:14.139Z,63.76
2023-04-18T05:15:14.011Z,62.77
2023-04-18T05:16:14.072Z,59.23
2023-04-18T05:17:14.050Z,57.06
2023-04-18T05:18:14.061Z,59.92
2023-04-18T05:19:14.057Z,60.56
2023-04-18T05:20:14.069Z,60.37
2023-04-18T05:21:14.071Z,57.91
2023-04-18T05:22:14.075Z,60.32
2023-04-18T05:23:14.131Z,62.25
2023-04-18T05:24:14.417Z,57.99
2023-04-18T05:25:14.159Z,56.57
2023-04-18T05:26:14.145Z,56.43
2023-04-18T05:27:14.770Z,58.47
2023-04-18T05:28:14.167Z,53.53
2023-04-18T05:29:14.166Z,57.57
2023-04-18T05:30:14.187Z,55.72
2023-04-18T05:31:14.216Z,50.02
2023-04-18T05:32:14.182Z,49.25
2023-04-18T05:33:14.204Z,48.54
2023-04-18T05:34:14.422Z,50.28
2023-04-18T05:35:14.263Z,49.25
2023-04-18T05:36:14.228Z,45.80
2023-04-18T05:37:14.330Z,41.72
2023-04-18T05:38:14.299Z,46.45
2023-04-18T05:39:14.333Z,50.89
2023-04-18T05:40:14.373Z,57.70
2023-04-18T05:41:14.443Z,34.61
2023-04-18T05:42:14.448Z,23.48
2023-04-18T05:43:14.483Z,25.75
2023-04-18T05:44:14.531Z,25.81
2023-04-18T05:45:14.598Z,28.93
2023-04-18T05:46:14.544Z,25.11
2023-04-18T05:47:14.566Z,25.99
2023-04-18T05:48:14.566Z,27.90
2023-04-18T05:49:14.622Z,29.60
2023-04-18T05:50:14.638Z,31.06
2023-04-18T05:51:15.029Z,32.00
2023-04-18T05:52:14.696Z,39.83
2023-04-18T05:53:14.717Z,54.03
2023-04-18T05:54:14.884Z,52.80
2023-04-18T05:55:14.719Z,51.16
2023-04-18T05:56:14.844Z,62.37
2023-04-18T05:57:15.040Z,71.68
2023-04-18T05:58:14.884Z,70.33
2023-04-18T05:59:16.523Z,71.22
2023-04-18T06:00:15.005Z,75.71
2023-04-18T06:01:15.536Z,84.30
2023-04-18T06:02:15.063Z,87.57
2023-04-18T06:03:15.199Z,97.00
2023-04-18T06:04:15.358Z,95.32
2023-04-18T06:05:15.448Z,100.42
2023-04-18T06:06:15.105Z,100.88
2023-04-18T06:07:15.573Z,107.41
2023-04-18T06:08:15.111Z,107.34
2023-04-18T06:09:15.051Z,112.90
2023-04-18T06:10:15.063Z,118.82
2023-04-18T06:11:15.079Z,126.28
2023-04-18T06:12:15.065Z,128.33
2023-04-18T06:13:15.079Z,125.46
2023-04-18T06:14:15.446Z,132.31
2023-04-18T06:15:15.209Z,140.07
2023-04-18T06:16:15.288Z,136.19
2023-04-18T06:17:15.213Z,139.29
2023-04-18T06:18:15.229Z,141.36
2023-04-18T06:19:15.546Z,144.63
2023-04-18T06:20:15.346Z,147.81
2023-04-18T06:21:17.493Z,150.72
2023-04-18T06:22:16.025Z,153.08
2023-04-18T06:23:15.456Z,158.07
2023-04-18T06:24:15.859Z,157.96
2023-04-18T06:25:15.596Z,157.32
2023-04-18T06:26:15.644Z,162.08
2023-04-18T06:27:30.262Z,165.61
2023-04-18T06:28:16.742Z,166.02
2023-04-18T06:29:16.027Z,166.95
2023-04-18T06:30:15.716Z,169.56
2023-04-18T06:31:16.050Z,176.45
2023-04-18T06:32:15.737Z,182.59
2023-04-18T06:33:16.641Z,187.85
2023-04-18T06:34:16.048Z,187.66
2023-04-18T06:35:16.056Z,191.68
2023-04-18T06:36:15.721Z,188.71
2023-04-18T06:37:15.771Z,190.86
2023-04-18T06:38:15.891Z,158.50
2023-04-18T06:39:15.888Z,138.53
2023-04-18T06:40:15.894Z,134.23
2023-04-18T06:41:15.918Z,145.45
2023-04-18T06:42:15.920Z,147.46
2023-04-18T06:43:15.914Z,157.69
2023-04-18T06:44:16.038Z,159.25
2023-04-18T06:45:15.913Z,154.73
2023-04-18T06:46:16.008Z,150.32
2023-04-18T06:47:15.896Z,150.89
2023-04-18T06:48:16.043Z,150.98
2023-04-18T06:49:15.899Z,153.19
2023-04-18T06:50:15.964Z,157.15
2023-04-18T06:51:16.017Z,161.18
2023-04-18T06:52:16.074Z,161.57
2023-04-18T06:53:16.651Z,169.58
2023-04-18T06:54:16.299Z,170.33
2023-04-18T06:55:16.320Z,164.15
2023-04-18T06:56:16.296Z,169.15
2023-04-18T06:57:16.378Z,173.93
2023-04-18T06:58:16.419Z,179.54
2023-04-18T06:59:16.639Z,180.85
2023-04-18T07:00:16.633Z,185.25
2023-04-18T07:01:16.761Z,187.07
2023-04-18T07:02:16.669Z,192.69
2023-04-18T07:03:16.899Z,192.16
2023-04-18T07:04:17.214Z,193.21
2023-04-18T07:05:16.846Z,196.77
2023-04-18T07:06:16.900Z,200.70
2023-04-18T07:07:16.897Z,202.16
2023-04-18T07:08:16.960Z,204.76
2023-04-18T07:09:16.997Z,207.61
2023-04-18T07:10:17.026Z,214.40
2023-04-18T07:11:17.076Z,217.37
2023-04-18T07:12:17.120Z,218.85
2023-04-18T07:13:17.182Z,217.95
2023-04-18T07:14:17.346Z,220.95
2023-04-18T07:15:17.342Z,225.39
2023-04-18T07:16:17.271Z,226.63
2023-04-18T07:17:17.364Z,230.68
2023-04-18T07:18:30.317Z,237.52
2023-04-18T07:19:18.407Z,237.91
2023-04-18T07:20:17.443Z,238.54
2023-04-18T07:21:17.387Z,241.21
2023-04-18T07:22:17.330Z,243.52
2023-04-18T07:23:17.321Z,248.95
2023-04-18T07:24:17.339Z,247.57
2023-04-18T07:25:17.313Z,247.93
2023-04-18T07:26:17.328Z,246.07
2023-04-18T07:27:17.351Z,242.80
2023-04-18T07:28:17.451Z,241.86
2023-04-18T07:29:17.343Z,245.57
2023-04-18T07:30:17.660Z,247.34
2023-04-18T07:31:17.381Z,247.52
2023-04-18T07:32:17.325Z,245.47
2023-04-18T07:33:17.263Z,232.10
2023-04-18T07:34:17.242Z,213.18
2023-04-18T07:35:17.654Z,218.11
2023-04-18T07:36:17.553Z,228.90
2023-04-18T07:37:17.287Z,226.55
2023-04-18T07:38:17.312Z,227.76
2023-04-18T07:39:17.324Z,233.11
2023-04-18T07:40:17.327Z,245.84
2023-04-18T07:41:17.336Z,242.42
2023-04-18T07:42:17.330Z,243.79
2023-04-18T07:43:18.104Z,242.74
2023-04-18T07:44:17.457Z,243.73
2023-04-18T07:45:17.363Z,235.79
2023-04-18T07:46:17.384Z,235.62
2023-04-18T07:47:21.968Z,226.92
2023-04-18T07:48:18.480Z,226.93
2023-04-18T07:49:17.437Z,219.24
2023-04-18T07:50:17.453Z,215.51
2023-04-18T07:51:17.460Z,210.32
2023-04-18T07:52:17.416Z,202.90
2023-04-18T07:53:17.526Z,196.79
2023-04-18T07:54:17.628Z,193.50
2023-04-18T07:55:17.399Z,190.34
2023-04-18T07:56:17.626Z,181.16
2023-04-18T07:57:17.493Z,179.40
2023-04-18T07:58:17.557Z,171.25
2023-04-18T07:59:17.572Z,163.99
2023-04-18T08:00:17.655Z,159.36
2023-04-18T08:01:17.673Z,157.39
2023-04-18T08:02:18.167Z,156.22
2023-04-18T08:03:17.999Z,153.29
2023-04-18T08:04:17.993Z,148.13
2023-04-18T08:05:17.880Z,146.55
2023-04-18T08:06:17.905Z,140.96
2023-04-18T08:07:17.962Z,135.67
2023-04-18T08:08:18.080Z,136.85
2023-04-18T08:09:20.079Z,133.91
2023-04-18T08:10:18.358Z,131.19
2023-04-18T08:11:18.345Z,133.28
2023-04-18T08:12:18.569Z,128.58
2023-04-18T08:13:18.474Z,123.28
2023-04-18T08:14:18.508Z,121.90
2023-04-18T08:15:18.580Z,119.69
2023-04-18T08:16:18.701Z,117.90
2023-04-18T08:17:18.588Z,119.99
2023-04-18T08:18:18.662Z,116.74
2023-04-18T08:19:19.087Z,105.25
2023-04-18T08:20:18.830Z,113.66
2023-04-18T08:21:18.735Z,106.61
2023-04-18T08:22:18.809Z,102.54
2023-04-18T08:23:18.805Z,90.48
2023-04-18T08:24:18.909Z,102.98
2023-04-18T08:25:18.918Z,95.17
2023-04-18T08:26:18.989Z,51.83
2023-04-18T08:27:18.922Z,13.76
2023-04-18T08:28:18.975Z,23.17
2023-04-18T08:29:18.986Z,25.00
2023-04-18T08:30:18.981Z,22.75
2023-04-18T08:31:19.103Z,24.69
2023-04-18T08:32:19.081Z,28.59
2023-04-18T08:33:19.073Z,25.00
2023-04-18T08:34:19.182Z,27.37
2023-04-18T08:35:19.141Z,27.23
2023-04-18T08:36:19.181Z,25.00
2023-04-18T08:37:19.218Z,27.60
2023-04-18T08:38:19.247Z,25.00
2023-04-18T08:39:19.251Z,28.06
2023-04-18T08:40:19.414Z,24.36
2023-04-18T08:41:19.376Z,25.00
2023-04-18T08:42:19.484Z,47.53
2023-04-18T08:43:19.609Z,68.08
2023-04-18T08:44:19.562Z,81.31
2023-04-18T08:45:19.566Z,80.48
2023-04-18T08:46:19.654Z,74.95
2023-04-18T08:47:19.689Z,66.03
2023-04-18T08:48:20.099Z,60.32
2023-04-18T08:49:19.729Z,59.29
2023-04-18T08:50:19.954Z,56.41
2023-04-18T08:51:19.886Z,47.36
2023-04-18T08:52:19.862Z,48.63
2023-04-18T08:53:20.236Z,46.48
2023-04-18T08:54:20.045Z,41.58
2023-04-18T08:55:19.979Z,32.74
2023-04-18T08:56:20.038Z,30.13
2023-04-18T08:57:20.047Z,32.81
2023-04-18T08:58:20.160Z,32.94
2023-04-18T08:59:20.122Z,25.00
2023-04-18T09:00:20.230Z,28.11
2023-04-18T09:01:20.285Z,31.39
2023-04-18T09:02:20.349Z,32.35
2023-04-18T09:03:20.365Z,41.45
2023-04-18T09:04:20.571Z,43.58
2023-04-18T09:05:20.456Z,53.43
2023-04-18T09:06:20.429Z,54.12
2023-04-18T09:07:20.480Z,63.52
2023-04-18T09:08:20.533Z,68.40
2023-04-18T09:09:20.618Z,79.05
2023-04-18T09:10:20.555Z,90.17
2023-04-18T09:11:20.612Z,90.40
2023-04-18T09:12:20.566Z,81.15
2023-04-18T09:13:20.802Z,58.07
2023-04-18T09:14:20.595Z,52.24
2023-04-18T09:15:20.614Z,52.31
2023-04-18T09:16:20.710Z,58.18
2023-04-18T09:17:20.584Z,56.28
2023-04-18T09:18:20.591Z,57.18
2023-04-18T09:19:20.674Z,60.93
2023-04-18T09:20:20.722Z,62.28
2023-04-18T09:21:20.670Z,60.56
2023-04-18T09:22:20.660Z,64.76
2023-04-18T09:23:20.694Z,64.23
2023-04-18T09:24:20.736Z,81.41
2023-04-18T09:25:20.754Z,70.91
2023-04-18T09:26:20.721Z,82.86
2023-04-18T09:27:21.132Z,84.29
2023-04-18T09:28:20.702Z,91.87
2023-04-18T09:29:20.729Z,95.87
2023-04-18T09:30:20.889Z,96.96
2023-04-18T09:31:20.795Z,94.65
2023-04-18T09:32:21.209Z,97.93
2023-04-18T09:33:20.807Z,78.39
2023-04-18T09:34:20.807Z,79.19
2023-04-18T09:35:20.780Z,83.84
2023-04-18T09:36:21.163Z,81.70
2023-04-18T09:37:20.779Z,80.21
2023-04-18T09:38:20.881Z,71.88
2023-04-18T09:39:20.815Z,86.94
2023-04-18T09:40:20.810Z,99.57
2023-04-18T09:41:21.691Z,108.11
2023-04-18T09:42:20.813Z,108.23
2023-04-18T09:43:20.839Z,104.26
2023-04-18T09:44:21.141Z,107.56
2023-04-18T09:45:20.965Z,110.27
2023-04-18T09:46:21.067Z,110.43
2023-04-18T09:47:21.135Z,111.81
2023-04-18T09:48:21.184Z,109.01
2023-04-18T09:49:21.229Z,105.91
2023-04-18T09:50:21.270Z,106.56
2023-04-18T09:51:21.695Z,105.72
2023-04-18T09:52:21.344Z,102.28
2023-04-18T09:53:21.458Z,99.81
2023-04-18T09:54:21.511Z,95.83
2023-04-18T09:55:21.552Z,99.05
2023-04-18T09:56:21.617Z,91.87
2023-04-18T09:57:21.736Z,92.09
2023-04-18T09:58:21.731Z,92.93
2023-04-18T09:59:21.832Z,95.69
2023-04-18T10:00:21.888Z,94.28
2023-04-18T10:01:22.020Z,91.18
2023-04-18T10:02:22.147Z,91.96
2023-04-18T10:03:22.237Z,90.06
2023-04-18T10:04:22.245Z,80.06
2023-04-18T10:05:22.246Z,76.81
2023-04-18T10:06:22.225Z,70.95
2023-04-18T10:07:22.315Z,65.91
2023-04-18T10:08:22.368Z,64.87
2023-04-18T10:09:22.434Z,75.38
2023-04-18T10:10:22.528Z,75.27
2023-04-18T10:11:22.589Z,79.30
2023-04-18T10:12:22.649Z,80.99
2023-04-18T10:13:22.652Z,84.16
2023-04-18T10:14:22.745Z,81.25
2023-04-18T10:15:22.838Z,74.02
2023-04-18T10:16:23.200Z,56.70
2023-04-18T10:17:23.025Z,50.59
2023-04-18T10:18:23.168Z,38.71
2023-04-18T10:19:23.001Z,27.73
2023-04-18T10:20:23.118Z,24.95
2023-04-18T10:21:23.033Z,25.00
2023-04-18T10:22:23.246Z,22.64
2023-04-18T10:23:23.041Z,27.32
2023-04-18T10:24:23.032Z,25.00
2023-04-18T10:25:23.072Z,26.79
2023-04-18T10:26:23.052Z,25.17
2023-04-18T10:27:23.162Z,25.00
2023-04-18T10:28:23.116Z,23.88
2023-04-18T10:29:24.037Z,25.00
2023-04-18T10:30:23.141Z,25.40
2023-04-18T10:31:23.274Z,24.75
2023-04-18T10:32:23.753Z,26.10
2023-04-18T10:33:30.429Z,26.28
2023-04-18T10:34:24.185Z,26.29
2023-04-18T10:35:23.137Z,26.57
2023-04-18T10:36:23.129Z,28.17
2023-04-18T10:37:23.143Z,23.79
2023-04-18T10:38:23.673Z,22.99
2023-04-18T10:39:23.157Z,26.22
2023-04-18T10:40:23.208Z,25.00
2023-04-18T10:41:23.101Z,26.98
2023-04-18T10:42:23.113Z,25.00
2023-04-18T10:43:23.120Z,24.70
2023-04-18T10:44:23.551Z,25.61
2023-04-18T10:45:23.092Z,27.32
2023-04-18T10:46:31.904Z,26.62
2023-04-18T10:47:24.216Z,25.81
2023-04-18T10:48:23.181Z,20.09
2023-04-18T10:49:25.893Z,19.61
2023-04-18T10:50:23.132Z,21.73
2023-04-18T10:51:23.077Z,23.41
2023-04-18T10:52:23.031Z,26.67
2023-04-18T10:53:23.195Z,23.20
2023-04-18T10:54:23.038Z,24.52
2023-04-18T10:55:22.998Z,25.00
2023-04-18T10:56:23.012Z,29.04
2023-04-18T10:57:22.977Z,28.96
2023-04-18T10:58:23.010Z,27.72
2023-04-18T10:59:23.216Z,26.69
2023-04-18T11:00:23.092Z,33.41
2023-04-18T11:01:23.120Z,33.85
2023-04-18T11:02:23.237Z,28.86
2023-04-18T11:03:23.161Z,26.54
2023-04-18T11:04:23.096Z,29.33
2023-04-18T11:05:23.107Z,28.20
2023-04-18T11:06:23.017Z,30.35
2023-04-18T11:07:23.098Z,31.54
2023-04-18T11:08:23.050Z,25.99
2023-04-18T11:09:23.109Z,25.90
2023-04-18T11:10:23.176Z,26.38
2023-04-18T11:11:23.007Z,27.37
2023-04-18T11:12:23.012Z,25.49
2023-04-18T11:13:23.068Z,33.96
2023-04-18T11:14:23.011Z,33.92
2023-04-18T11:15:23.027Z,31.61
2023-04-18T11:16:23.101Z,29.93
2023-04-18T11:17:23.066Z,34.65
2023-04-18T11:18:22.946Z,32.75
2023-04-18T11:19:23.281Z,33.91
2023-04-18T11:20:23.084Z,32.40
2023-04-18T11:21:22.976Z,34.57
2023-04-18T11:22:22.937Z,32.09
2023-04-18T11:23:23.011Z,36.08
2023-04-18T11:24:23.244Z,28.98
2023-04-18T11:25:24.290Z,29.88
2023-04-18T11:26:22.979Z,29.03
2023-04-18T11:27:22.916Z,26.26
2023-04-18T11:28:22.918Z,28.89
2023-04-18T11:29:22.926Z,26.55
2023-04-18T11:30:23.191Z,26.56
2023-04-18T11:31:22.987Z,32.45
2023-04-18T11:32:23.195Z,28.44
2023-04-18T11:33:23.070Z,28.01
2023-04-18T11:34:23.115Z,39.62
2023-04-18T11:35:23.186Z,24.70
2023-04-18T11:36:23.180Z,32.04
2023-04-18T11:37:23.242Z,36.11
2023-04-18T11:38:24.299Z,37.11
2023-04-18T11:39:23.296Z,37.32
2023-04-18T11:40:23.392Z,34.85
2023-04-18T11:41:23.417Z,33.85
2023-04-18T11:42:23.683Z,35.40
2023-04-18T11:43:23.516Z,30.99
2023-04-18T11:44:23.525Z,29.36
2023-04-18T11:45:24.158Z,30.64
2023-04-18T11:46:23.639Z,32.20
2023-04-18T11:47:23.689Z,37.09
2023-04-18T11:48:23.652Z,38.58
2023-04-18T11:49:23.729Z,36.81
2023-04-18T11:50:23.881Z,36.28
2023-04-18T11:51:23.855Z,28.70
2023-04-18T11:52:23.869Z,28.54
2023-04-18T11:53:23.905Z,26.37
2023-04-18T11:54:23.892Z,42.07
2023-04-18T11:55:24.062Z,74.43
2023-04-18T11:56:23.978Z,87.64
2023-04-18T11:57:24.003Z,96.69
2023-04-18T11:58:23.994Z,100.84
2023-04-18T11:59:23.995Z,105.65
2023-04-18T12:00:24.040Z,109.20
2023-04-18T12:01:24.011Z,116.47
2023-04-18T12:02:24.115Z,110.09
2023-04-18T12:03:24.461Z,109.91
2023-04-18T12:04:24.256Z,110.32
2023-04-18T12:05:24.396Z,112.89
2023-04-18T12:06:24.340Z,122.59
2023-04-18T12:07:24.192Z,127.89
2023-04-18T12:08:24.259Z,128.49
2023-04-18T12:09:24.326Z,134.55
2023-04-18T12:10:24.462Z,137.67
2023-04-18T12:11:24.476Z,139.14
2023-04-18T12:12:24.482Z,139.82
2023-04-18T12:13:24.612Z,142.47
2023-04-18T12:14:24.659Z,146.51
2023-04-18T12:15:24.661Z,147.30
2023-04-18T12:16:24.764Z,151.05
2023-04-18T12:17:24.811Z,151.03
2023-04-18T12:18:24.854Z,156.77
2023-04-18T12:19:24.877Z,159.37
2023-04-18T12:20:24.900Z,158.61
2023-04-18T12:21:24.970Z,163.91
2023-04-18T12:22:24.980Z,166.11
2023-04-18T12:23:25.028Z,166.84
2023-04-18T12:24:25.098Z,169.57
2023-04-18T12:25:27.353Z,173.82
2023-04-18T12:26:25.059Z,175.75
2023-04-18T12:27:25.122Z,176.01
2023-04-18T12:28:25.062Z,176.26
2023-04-18T12:29:25.087Z,178.11
2023-04-18T12:30:25.023Z,180.43
2023-04-18T12:31:25.046Z,182.30
2023-04-18T12:32:25.083Z,183.83
2023-04-18T12:33:24.984Z,189.32
2023-04-18T12:34:25.053Z,190.72
2023-04-18T12:35:25.054Z,193.18
2023-04-18T12:36:24.996Z,194.41
2023-04-18T12:37:24.972Z,195.35
2023-04-18T12:38:24.968Z,196.42
2023-04-18T12:39:24.937Z,199.86
2023-04-18T12:40:24.961Z,203.81
2023-04-18T12:41:24.940Z,204.14
2023-04-18T12:42:24.993Z,205.14
2023-04-18T12:43:24.902Z,206.87
2023-04-18T12:44:24.932Z,207.71
2023-04-18T12:45:24.913Z,209.23
2023-04-18T12:46:24.999Z,207.82